Ventura — ZCDT2 — position and weather

sailwx.info

Track history (hours):
 
Tides and Currents Weather Stations Pressure Air Temp Water Temp Dewpoint Dewpoint Depression Visibility Wind Speed Wind Dir Waves Ship Positions

Ventura

Last reported at 2015-Mar-31 23:06 UTC. Time now 2015-Apr-01 00:00 UTC.
Position N 42°24' E 005°10'.

Length 288 m; draft 8.4 m.

Type: Passenger vessel. MMSI: 310562000.

Date/timePositionNaut miles runAvg speedWind from/ knotsBaromVisibWave heightAir tempDewpointWater temp
2015-Mar-31 23:06N 42°24' E 005°10'3920.8
2015-Mar-31 21:14N 42°06' E 004°24'2321.5
2015-Mar-31 20:10N 41°56' E 003°56'1421.0
2015-Mar-31 19:29N 41°49' E 003°39'2321.3
2015-Mar-31 18:22N 41°38' E 003°11'1921.6
2015-Mar-31 17:31N 41°30' E 002°49'2121.8
2015-Mar-31 16:33N 41°19' E 002°25'1110.9
2015-Mar-31 15:33N 41°21' E 002°10'1 0.1
2015-Mar-31 06:33N 41°22' E 002°11'6 6.3
2015-Mar-31 05:32N 41°15' E 002°12'1717.1
2015-Mar-31 04:33N 41°00' E 002°02'2020.0
2015-Mar-31 03:33N 40°42' E 001°50'2019.5
2015-Mar-31 02:33N 40°25' E 001°38'1919.0
2015-Mar-31 01:33N 40°08' E 001°27'2019.7
2015-Mar-31 00:33N 39°51' E 001°15'2620.5
2015-Mar-30 23:17N 39°28' E 000°59'1620.4
2015-Mar-30 22:31N 39°14' E 000°50'6919.8
2015-Mar-30 19:03N 38°15' E 000°05'1019.1
2015-Mar-30 18:33N 38°07' W 000°01'1919.5
2015-Mar-30 17:34N 37°50' W 000°14'2019.6
2015-Mar-30 16:34N 37°35' W 000°29'1919.4
2015-Mar-30 15:34N 37°21' W 000°46'2019.8
2015-Mar-30 14:33N 37°07' W 001°05'17820.8
2015-Mar-30 06:00N 36°00' W 004°30'3826.3 360 / 181026.227.0 1.519.013.015.1
2015-Mar-30 04:33N 35°59' W 005°17'11722.3
2015-Mar-29 23:20N 36°13' W 007°40'1822.0
2015-Mar-29 22:31N 36°18' W 008°01'2121.9
2015-Mar-29 21:33N 36°24' W 008°26'2221.5
2015-Mar-29 20:32N 36°29' W 008°53'2221.9
2015-Mar-29 19:33N 36°35' W 009°19'2121.4
2015-Mar-29 18:33N 36°52' W 009°34'2222.1
2015-Mar-29 17:33N 37°14' W 009°41'2221.7
2015-Mar-29 16:32N 37°35' W 009°49'2121.7
2015-Mar-29 15:33N 37°56' W 009°53'2222.1
2015-Mar-29 14:33N 38°18' W 009°59'2221.9
2015-Mar-29 13:33N 38°39' W 010°06'2221.9
2015-Mar-29 12:33N 39°01' W 010°07'2221.8
2015-Mar-29 11:33N 39°23' W 010°07'10924.0
2015-Mar-29 07:00N 41°12' W 010°06'28719.1 320 / 181033.9 5.4 1.513.013.013.5
2015-Mar-28 16:00N 45°42' W 007°54'17719.7 270 / 331026.0 2.2 3.513.012.112.2
2015-Mar-28 07:00N 48°12' W 005°36'14521.1 230 / 321021.910.8 2.5 8.0 0.510.9
2015-Mar-28 00:09N 49°55' W 003°02'1219.4
2015-Mar-27 23:33N 50°00' W 002°45'2419.4
2015-Mar-27 22:17N 50°11' W 002°11'1419.3
2015-Mar-27 21:33N 50°17' W 001°51'2020.1
2015-Mar-27 20:33N 50°26' W 001°23'1818.1
2015-Mar-27 19:33N 50°36' W 000°60'1211.5
2015-Mar-27 18:33N 50°46' W 001°10'10 9.6
2015-Mar-27 17:33N 50°52' W 001°22'2 2.0
2015-Mar-27 16:31N 50°53' W 001°24'0 0.0
2015-Mar-27 15:31N 50°53' W 001°24'0 0.0
2015-Mar-27 14:31N 50°53' W 001°24'0 0.0
2015-Mar-27 13:31N 50°53' W 001°24'0 0.0
2015-Mar-27 12:31N 50°53' W 001°24'0 0.0
2015-Mar-27 11:31N 50°53' W 001°24'0 0.0
2015-Mar-27 10:31N 50°53' W 001°24'0 0.0
2015-Mar-27 09:31N 50°53' W 001°24'0 0.0
2015-Mar-27 08:31N 50°53' W 001°24'0 0.0
2015-Mar-27 07:31N 50°53' W 001°24'0 0.0
2015-Mar-27 06:31N 50°53' W 001°24'1 1.5
2015-Mar-27 05:33N 50°52' W 001°23'9 9.5
2015-Mar-27 04:34N 50°46' W 001°12'1111.3
2015-Mar-27 03:33N 50°38' W 000°58'1212.0
2015-Mar-27 02:33N 50°30' W 001°12'1413.4
2015-Mar-27 01:33N 50°26' W 001°32'1413.1
2015-Mar-27 00:31N 50°22' W 001°53'1713.5
2015-Mar-26 23:16N 50°17' W 002°18'913.4
2015-Mar-26 22:33N 50°14' W 002°32'1313.4
2015-Mar-26 21:33N 50°10' W 002°52'1313.0
2015-Mar-26 20:33N 50°06' W 003°12'1613.6
2015-Mar-26 19:23N 49°60' W 003°34'25116.3
2015-Mar-26 04:00N 47°48' W 009°00'20717.2 290 / 341009.6 5.4 2.013.0 9.111.8
2015-Mar-25 16:00N 45°48' W 013°06'9415.6 270 / 231019.8 5.4 1.511.710.312.5
2015-Mar-25 10:00N 44°48' W 014°48'4221.2 330 / 241024.710.8 1.511.4 6.813.1
2015-Mar-25 08:00N 44°18' W 015°30'7017.5 290 / 171031.010.8 0.510.5 5.013.2
2015-Mar-25 04:00N 43°36' W 016°48'25516.0 320 / 181027.810.8 1.010.0 3.113.5
2015-Mar-24 12:00N 40°42' W 021°00'12517.8 010 / 181032.210.8 2.013.6 3.714.7
2015-Mar-24 05:00N 39°18' W 023°00'6814.9 350 / 181030.410.8 2.012.0 5.615.1
2015-Mar-24 00:27N 38°30' W 024°01'1416.0
2015-Mar-23 23:33N 38°20' W 024°14'1616.2
2015-Mar-23 22:34N 38°08' W 024°28'1616.3
2015-Mar-23 21:34N 37°56' W 024°43'1616.0
2015-Mar-23 20:34N 37°46' W 024°59'1615.8
2015-Mar-23 19:33N 37°41' W 025°17'1515.3
2015-Mar-23 18:34N 37°43' W 025°37'3 2.8
2015-Mar-23 17:33N 37°44' W 025°40'0 0.0
2015-Mar-23 16:33N 37°44' W 025°40'0 0.0
2015-Mar-23 15:33N 37°44' W 025°40'0 0.0
2015-Mar-23 14:33N 37°44' W 025°40'0 0.0
2015-Mar-23 13:33N 37°44' W 025°40'0 0.0
2015-Mar-23 12:33N 37°44' W 025°40'0 0.0
2015-Mar-23 11:33N 37°44' W 025°40'0 0.0
2015-Mar-23 10:33N 37°44' W 025°40'0 0.0
2015-Mar-23 09:33N 37°44' W 025°40'0 0.4
2015-Mar-23 08:33N 37°44' W 025°39'1010.3
2015-Mar-23 07:34N 37°38' W 025°50'1918.5
2015-Mar-23 06:34N 37°30' W 026°11'1918.6
2015-Mar-23 05:34N 37°23' W 026°32'1729.2
2015-Mar-23 05:00N 37°12' W 026°48'512.4 010 / 271028.610.8 2.015.0 6.916.4
2015-Mar-23 04:34N 37°16' W 026°53'1918.8
2015-Mar-23 03:33N 37°08' W 027°14'2818.7
2015-Mar-23 02:03N 36°57' W 027°46'918.7
2015-Mar-23 01:33N 36°53' W 027°57'7217.3
2015-Mar-22 21:22N 36°23' W 029°19'4816.4
2015-Mar-22 18:25N 36°02' W 030°13'21917.6
2015-Mar-22 06:00N 34°24' W 034°12'   070 / 171027.110.8 2.018.012.720.1
Track history (hours):
 
Tides and Currents Weather Stations Pressure Air Temp Water Temp Dewpoint Dewpoint Depression Visibility Wind Speed Wind Dir Waves Ship Positions

Ventura

Last reported at 2015-Mar-31 23:06 UTC. Time now 2015-Apr-01 00:00 UTC.
Position N 42°24' E 005°10'.

Length 288 m; draft 8.4 m.

Type: Passenger vessel. MMSI: 310562000.

Date/timePositionNaut miles runAvg speedWind from/ knotsBaromVisibWave heightAir tempDewpointWater temp
2015-Mar-31 23:06N 42°24' E 005°10'3920.8
2015-Mar-31 21:14N 42°06' E 004°24'2321.5
2015-Mar-31 20:10N 41°56' E 003°56'1421.0
2015-Mar-31 19:29N 41°49' E 003°39'2321.3
2015-Mar-31 18:22N 41°38' E 003°11'1921.6
2015-Mar-31 17:31N 41°30' E 002°49'2121.8
2015-Mar-31 16:33N 41°19' E 002°25'1110.9
2015-Mar-31 15:33N 41°21' E 002°10'1 0.1
2015-Mar-31 06:33N 41°22' E 002°11'6 6.3
2015-Mar-31 05:32N 41°15' E 002°12'1717.1
2015-Mar-31 04:33N 41°00' E 002°02'2020.0
2015-Mar-31 03:33N 40°42' E 001°50'2019.5
2015-Mar-31 02:33N 40°25' E 001°38'1919.0
2015-Mar-31 01:33N 40°08' E 001°27'2019.7
2015-Mar-31 00:33N 39°51' E 001°15'2620.5
2015-Mar-30 23:17N 39°28' E 000°59'1620.4
2015-Mar-30 22:31N 39°14' E 000°50'6919.8
2015-Mar-30 19:03N 38°15' E 000°05'1019.1
2015-Mar-30 18:33N 38°07' W 000°01'1919.5
2015-Mar-30 17:34N 37°50' W 000°14'2019.6
2015-Mar-30 16:34N 37°35' W 000°29'1919.4
2015-Mar-30 15:34N 37°21' W 000°46'2019.8
2015-Mar-30 14:33N 37°07' W 001°05'17820.8
2015-Mar-30 06:00N 36°00' W 004°30'3826.3 360 / 181026.227.0 1.519.013.015.1
2015-Mar-30 04:33N 35°59' W 005°17'11722.3
2015-Mar-29 23:20N 36°13' W 007°40'1822.0
2015-Mar-29 22:31N 36°18' W 008°01'2121.9
2015-Mar-29 21:33N 36°24' W 008°26'2221.5
2015-Mar-29 20:32N 36°29' W 008°53'2221.9
2015-Mar-29 19:33N 36°35' W 009°19'2121.4
2015-Mar-29 18:33N 36°52' W 009°34'2222.1
2015-Mar-29 17:33N 37°14' W 009°41'2221.7
2015-Mar-29 16:32N 37°35' W 009°49'2121.7
2015-Mar-29 15:33N 37°56' W 009°53'2222.1
2015-Mar-29 14:33N 38°18' W 009°59'2221.9
2015-Mar-29 13:33N 38°39' W 010°06'2221.9
2015-Mar-29 12:33N 39°01' W 010°07'2221.8
2015-Mar-29 11:33N 39°23' W 010°07'10924.0
2015-Mar-29 07:00N 41°12' W 010°06'28719.1 320 / 181033.9 5.4 1.513.013.013.5
2015-Mar-28 16:00N 45°42' W 007°54'17719.7 270 / 331026.0 2.2 3.513.012.112.2
2015-Mar-28 07:00N 48°12' W 005°36'14521.1 230 / 321021.910.8 2.5 8.0 0.510.9
2015-Mar-28 00:09N 49°55' W 003°02'1219.4
2015-Mar-27 23:33N 50°00' W 002°45'2419.4
2015-Mar-27 22:17N 50°11' W 002°11'1419.3
2015-Mar-27 21:33N 50°17' W 001°51'2020.1
2015-Mar-27 20:33N 50°26' W 001°23'1818.1
2015-Mar-27 19:33N 50°36' W 000°60'1211.5
2015-Mar-27 18:33N 50°46' W 001°10'10 9.6
2015-Mar-27 17:33N 50°52' W 001°22'2 2.0
2015-Mar-27 16:31N 50°53' W 001°24'0 0.0
2015-Mar-27 15:31N 50°53' W 001°24'0 0.0
2015-Mar-27 14:31N 50°53' W 001°24'0 0.0
2015-Mar-27 13:31N 50°53' W 001°24'0 0.0
2015-Mar-27 12:31N 50°53' W 001°24'0 0.0
2015-Mar-27 11:31N 50°53' W 001°24'0 0.0
2015-Mar-27 10:31N 50°53' W 001°24'0 0.0
2015-Mar-27 09:31N 50°53' W 001°24'0 0.0
2015-Mar-27 08:31N 50°53' W 001°24'0 0.0
2015-Mar-27 07:31N 50°53' W 001°24'0 0.0
2015-Mar-27 06:31N 50°53' W 001°24'1 1.5
2015-Mar-27 05:33N 50°52' W 001°23'9 9.5
2015-Mar-27 04:34N 50°46' W 001°12'1111.3
2015-Mar-27 03:33N 50°38' W 000°58'1212.0
2015-Mar-27 02:33N 50°30' W 001°12'1413.4
2015-Mar-27 01:33N 50°26' W 001°32'1413.1
2015-Mar-27 00:31N 50°22' W 001°53'1713.5
2015-Mar-26 23:16N 50°17' W 002°18'913.4
2015-Mar-26 22:33N 50°14' W 002°32'1313.4
2015-Mar-26 21:33N 50°10' W 002°52'1313.0
2015-Mar-26 20:33N 50°06' W 003°12'1613.6
2015-Mar-26 19:23N 49°60' W 003°34'25116.3
2015-Mar-26 04:00N 47°48' W 009°00'20717.2 290 / 341009.6 5.4 2.013.0 9.111.8
2015-Mar-25 16:00N 45°48' W 013°06'9415.6 270 / 231019.8 5.4 1.511.710.312.5
2015-Mar-25 10:00N 44°48' W 014°48'4221.2 330 / 241024.710.8 1.511.4 6.813.1
2015-Mar-25 08:00N 44°18' W 015°30'7017.5 290 / 171031.010.8 0.510.5 5.013.2
2015-Mar-25 04:00N 43°36' W 016°48'25516.0 320 / 181027.810.8 1.010.0 3.113.5
2015-Mar-24 12:00N 40°42' W 021°00'12517.8 010 / 181032.210.8 2.013.6 3.714.7
2015-Mar-24 05:00N 39°18' W 023°00'6814.9 350 / 181030.410.8 2.012.0 5.615.1
2015-Mar-24 00:27N 38°30' W 024°01'1416.0
2015-Mar-23 23:33N 38°20' W 024°14'1616.2
2015-Mar-23 22:34N 38°08' W 024°28'1616.3
2015-Mar-23 21:34N 37°56' W 024°43'1616.0
2015-Mar-23 20:34N 37°46' W 024°59'1615.8
2015-Mar-23 19:33N 37°41' W 025°17'1515.3
2015-Mar-23 18:34N 37°43' W 025°37'3 2.8
2015-Mar-23 17:33N 37°44' W 025°40'0 0.0
2015-Mar-23 16:33N 37°44' W 025°40'0 0.0
2015-Mar-23 15:33N 37°44' W 025°40'0 0.0
2015-Mar-23 14:33N 37°44' W 025°40'0 0.0
2015-Mar-23 13:33N 37°44' W 025°40'0 0.0
2015-Mar-23 12:33N 37°44' W 025°40'0 0.0
2015-Mar-23 11:33N 37°44' W 025°40'0 0.0
2015-Mar-23 10:33N 37°44' W 025°40'0 0.0
2015-Mar-23 09:33N 37°44' W 025°40'0 0.4
2015-Mar-23 08:33N 37°44' W 025°39'1010.3
2015-Mar-23 07:34N 37°38' W 025°50'1918.5
2015-Mar-23 06:34N 37°30' W 026°11'1918.6
2015-Mar-23 05:34N 37°23' W 026°32'1729.2
2015-Mar-23 05:00N 37°12' W 026°48'512.4 010 / 271028.610.8 2.015.0 6.916.4
2015-Mar-23 04:34N 37°16' W 026°53'1918.8
2015-Mar-23 03:33N 37°08' W 027°14'2818.7
2015-Mar-23 02:03N 36°57' W 027°46'918.7
2015-Mar-23 01:33N 36°53' W 027°57'7217.3
2015-Mar-22 21:22N 36°23' W 029°19'4816.4
2015-Mar-22 18:25N 36°02' W 030°13'21917.6
2015-Mar-22 06:00N 34°24' W 034°12'   070 / 171027.110.8 2.018.012.720.1

Dump ship's entire track history